Ben Bolt, TX (78342)

5:13 PM CDT en Agosto 29, 2014 (GMT -0500)
Ben Bolt Service Center | Change Station
CLOSE
Current Station
Estación meteorológica personal
Location: Alice, TX
Altura: 220 ft
Estaciones meteorológicas cercanas

Alt 220 ft 27.68 °N, 98.08 °W | Updated 16 seconds ago

Nublado
Nublado
82.6 ° F
Sensación térmica 92 ° F
N
5.0
Viento Variable Viento desde Este
Gusts 11.0 mph

Hoy
Alta -- | Baja -- ° F
--% Posibilidad de precipitaciones
Ayer
Alta -- | Baja -- ° F
Precip. -- pul
7:09 AM 7:56 PM
Creciente, 17% visible
Presión 29.78 pul
Visibilidad 10.0 Millas
Nubes Nublado 6000 ft
Índice de calor 92 ° F
Punto de rocío 78 ° F
Humedad 86%
Precipitaciones 0.09 pul
Espesor de la nieve No disponible.
UV 2 de una escala de 12
Polen 7.00 de una escala de 12
Calidad del aire No disponible.
Flu Activity No disponible.
METAR KALI 292153Z AUTO 15006KT 10SM OVC060 28/26 A2979 RMK AO2 RAB19E40 SLP085 P0000 T02780256

More Conditions Fewer Conditions

Presión 29.78 pul
Visibilidad 10.0 Millas
Nubes Nublado 6000 ft
Índice de calor 92 ° F
Punto de rocío 78 ° F
Humedad 86%
Precipitaciones 0.09 pul
Espesor de la nieve No disponible.
UV 2 de una escala de 12
Polen 7.00 de una escala de 12
Calidad del aire No disponible.
Flu Activity No disponible.
METAR KALI 292153Z AUTO 15006KT 10SM OVC060 28/26 A2979 RMK AO2 RAB19E40 SLP085 P0000 T02780256

More Conditions Fewer Conditions

Nowcast | as of 3:53 PM CDT on August 29, 2014

Scattered showers will continue moving across portions of south Texas and the middle Texas coastal waters this afternoon. Expect periods of light to moderate rain with this activity. Accumulations will generally range from a few hundredths to a tenth of an inch.

×

10-Day Weather Forecast

Almanac

Astronomía

Aug. 29, 2014 Salida Puesta
Hora real 7:09 AM CDT 7:56 PM CDT
Crepúsculo civil 6:45 AM CDT 8:20 PM CDT
Crepúsculo náutico 6:17 AM CDT 8:48 PM CDT
Crepúsculo astronómico 5:49 AM CDT 9:16 PM CDT
Luna 10:37 AM CDT 10:19 PM CDT
Horas de luz 13h 34m
Horas de luz
12h 46m
Tomorrow will be 1m 34s shorter.
Creciente, 17% of the Moon is Illuminated
Hoy
Creciente
Sep 2
Cuarto creciente
Sep 8
Luna llena
Sep 15
Cuarto menguante
Sep 24
Nueva

Extremos de hoy

Máximos del estado Bajos del estado

Community

WunderPhotos

Upload Photos

1,748,356 ¡fotos cargadas!

Nearby

Grosos de nieve

Estación Profundido Altura
No tenemos constancia de nieve nueva.

Actividad de terremotos

Ciudad Distance Mag. Tiempo y dato
No hay informes recientes de la actividad sísmica.
Magnitud mínima muestra es 2,5.

Temperaturas de aguas costeras

Lugar Temperatura
Baffin Bay Point of Rocks, TX 82.9 ° F
South Bird Island, TX 84.9 ° F
Packery Channel, TX 84.9 ° F
Port Aransas, TX 86.0 ° F
Malaquite Beach (Corpus Christi), TX 84.9 ° F

Estaciones meteorológicas cercanas